Time;durP1;ratioP1;P1;durP2;ratioP2;P2;SDS_P1;SDS_P2;PMS_P1;PMS_P2;Temp;Humidity;BMP_temperature;BMP_pressure;BME280_temperature;BME280_humidity;BME280_pressure;Samples;Min_cycle;Max_cycle;Signal;HPM_P1;HPM_P2
2021/11/04 00:01:09;;;;;;;61.47;26.55;;;;;;;6.17;100.00;100295.38;5035345;28;20063;-82
2021/11/04 00:03:34;;;;;;;57.08;28.25;;;;;;;6.19;100.00;100303.06;5021813;28;20026;-82
2021/11/04 00:06:00;;;;;;;55.13;28.40;;;;;;;6.21;100.00;100301.97;5022949;28;20045;-81
2021/11/04 00:08:25;;;;;;;56.67;28.73;;;;;;;6.24;100.00;100296.50;5036160;28;20516;-82
2021/11/04 00:10:51;;;;;;;58.30;27.52;;;;;;;6.24;100.00;100290.47;5006440;28;20039;-80
2021/11/04 00:13:16;;;;;;;58.78;28.73;;;;;;;6.28;100.00;100288.44;5035549;28;20111;-82
2021/11/04 00:15:42;;;;;;;62.45;30.25;;;;;;;6.29;100.00;100297.91;5019098;28;20059;-82
2021/11/04 00:18:10;;;;;;;58.78;28.80;;;;;;;6.28;100.00;100298.88;5047782;28;20063;-81
2021/11/04 00:20:36;;;;;;;58.83;27.67;;;;;;;6.23;100.00;100297.47;5026785;28;20037;-80
2021/11/04 00:23:02;;;;;;;48.97;25.90;;;;;;;6.25;100.00;100294.72;5017066;28;20025;-80
2021/11/04 00:25:28;;;;;;;46.47;25.42;;;;;;;6.23;100.00;100305.28;5031541;28;20513;-80
2021/11/04 00:27:54;;;;;;;53.65;27.25;;;;;;;6.23;100.00;100301.84;5016675;28;20491;-79
2021/11/04 00:30:19;;;;;;;49.55;27.20;;;;;;;6.21;100.00;100299.38;5007143;28;20100;-79
2021/11/04 00:32:50;;;;;;;57.95;28.23;;;;;;;6.18;100.00;100297.03;5008192;28;20099;-79
2021/11/04 00:35:16;;;;;;;55.70;28.67;;;;;;;6.19;100.00;100292.66;5036303;28;20040;-80
2021/11/04 00:37:42;;;;;;;62.08;26.88;;;;;;;6.19;100.00;100288.25;5004605;28;20033;-81
2021/11/04 00:40:10;;;;;;;52.15;26.48;;;;;;;6.24;100.00;100280.06;5040141;28;20131;-81
2021/11/04 00:42:35;;;;;;;45.08;25.30;;;;;;;6.22;100.00;100281.97;5022722;28;20599;-80
2021/11/04 00:45:01;;;;;;;81.05;26.85;;;;;;;6.17;100.00;100278.94;5036690;28;20128;-80
2021/11/04 00:47:27;;;;;;;53.50;26.45;;;;;;;6.17;100.00;100284.94;5033537;28;20491;-81
2021/11/04 00:49:52;;;;;;;54.92;25.98;;;;;;;6.15;100.00;100281.66;5019929;28;20071;-79
2021/11/04 00:52:18;;;;;;;62.03;27.33;;;;;;;6.16;100.00;100274.66;5036153;28;20055;-81
2021/11/04 00:54:43;;;;;;;62.83;26.52;;;;;;;6.14;100.00;100273.97;5019424;28;20044;-81
2021/11/04 00:57:09;;;;;;;59.60;30.10;;;;;;;6.21;100.00;100285.53;5033874;28;20024;-81
2021/11/04 00:59:34;;;;;;;56.65;28.10;;;;;;;6.20;100.00;100287.31;5022598;28;20029;-81
2021/11/04 01:02:00;;;;;;;64.78;27.23;;;;;;;6.13;100.00;100269.72;5004153;28;20033;-80
2021/11/04 01:04:25;;;;;;;52.00;25.83;;;;;;;6.13;100.00;100264.53;5036291;28;20037;-79
2021/11/04 01:06:51;;;;;;;53.80;26.85;;;;;;;6.08;100.00;100256.25;5035323;28;20116;-80
2021/11/04 01:09:16;;;;;;;51.85;25.63;;;;;;;6.15;100.00;100270.41;5034963;28;20099;-79
2021/11/04 01:11:42;;;;;;;49.75;24.77;;;;;;;6.15;100.00;100283.44;5048132;28;20040;-79
2021/11/04 01:14:08;;;;;;;51.53;25.55;;;;;;;6.14;100.00;100273.97;5051646;28;20040;-80
2021/11/04 01:16:33;;;;;;;51.95;25.60;;;;;;;6.14;100.00;100274.81;5020539;28;20036;-79
2021/11/04 01:18:59;;;;;;;53.15;25.63;;;;;;;6.16;100.00;100274.66;5018305;28;20250;-81
2021/11/04 01:21:25;;;;;;;61.60;27.02;;;;;;;6.17;100.00;100263.31;5034397;28;20036;-81
2021/11/04 01:23:50;;;;;;;50.42;25.50;;;;;;;6.16;100.00;100267.69;5010332;28;20029;-81
2021/11/04 01:26:16;;;;;;;52.92;27.27;;;;;;;6.14;100.00;100264.41;5038388;28;20410;-81
2021/11/04 01:28:41;;;;;;;47.90;26.15;;;;;;;6.19;100.00;100264.81;5029820;28;20033;-82
2021/11/04 01:31:07;;;;;;;71.03;28.00;;;;;;;6.19;100.00;100267.41;5018899;28;20029;-82
2021/11/04 01:33:32;;;;;;;54.75;26.83;;;;;;;6.19;100.00;100264.81;5047279;28;20033;-80
2021/11/04 01:35:58;;;;;;;55.33;26.85;;;;;;;6.21;100.00;100257.69;5048886;28;20033;-79
2021/11/04 01:38:24;;;;;;;55.03;28.17;;;;;;;6.21;100.00;100265.50;5002456;28;20395;-79
2021/11/04 01:40:50;;;;;;;58.17;28.05;;;;;;;6.20;100.00;100269.09;5021149;28;20129;-79
2021/11/04 01:43:16;;;;;;;51.65;27.73;;;;;;;6.18;100.00;100265.78;5016677;28;20033;-79
2021/11/04 01:45:42;;;;;;;56.10;28.15;;;;;;;6.20;100.00;100265.66;5054446;28;20059;-79
2021/11/04 01:48:08;;;;;;;51.08;27.80;;;;;;;6.21;100.00;100265.50;5023521;28;20128;-79
2021/11/04 01:50:34;;;;;;;54.95;29.23;;;;;;;6.23;100.00;100275.81;5004093;28;20395;-79
2021/11/04 01:53:00;;;;;;;64.35;30.35;;;;;;;6.20;100.00;100268.25;5038062;28;20075;-80
2021/11/04 01:55:28;;;;;;;57.88;28.67;;;;;;;6.17;100.00;100258.91;5037289;28;20032;-79
2021/11/04 01:57:55;;;;;;;55.58;29.10;;;;;;;6.24;100.00;100264.44;5030582;28;20040;-79
2021/11/04 02:00:24;;;;;;;60.08;28.38;;;;;;;6.21;100.00;100262.09;5038376;28;20037;-80
2021/11/04 02:03:04;;;;;;;67.00;29.85;;;;;;;6.18;100.00;100263.19;5028601;28;20064;-82
2021/11/04 02:05:48;;;;;;;58.88;29.33;;;;;;;6.15;100.00;100263.44;5018449;28;20116;-79
2021/11/04 02:08:20;;;;;;;52.95;27.42;;;;;;;6.13;100.00;100260.13;5004123;28;20044;-80
2021/11/04 02:10:54;;;;;;;70.00;26.85;;;;;;;6.11;100.00;100254.22;5008924;28;20037;-80
2021/11/04 02:13:30;;;;;;;52.08;25.50;;;;;;;6.12;100.00;100262.84;5038800;28;20060;-79
2021/11/04 02:16:00;;;;;;;63.55;25.65;;;;;;;6.07;100.00;100265.06;5015765;28;20103;-80
2021/11/04 02:18:28;;;;;;;65.85;25.58;;;;;;;6.05;100.00;100249.53;5022375;28;20506;-79
2021/11/04 02:21:11;;;;;;;67.20;27.70;;;;;;;6.04;100.00;100251.31;5005636;28;20024;-80
2021/11/04 02:23:56;;;;;;;105.28;26.50;;;;;;;6.04;100.00;100248.69;5052602;28;20044;-82
2021/11/04 02:26:22;;;;;;;59.33;27.25;;;;;;;6.03;100.00;100248.84;5017976;28;20033;-81
2021/11/04 02:28:51;;;;;;;63.15;26.85;;;;;;;6.06;100.00;100248.56;5013503;28;20457;-79
2021/11/04 02:31:18;;;;;;;66.82;25.48;;;;;;;5.99;100.00;100230.06;5024691;28;20044;-82
2021/11/04 02:33:44;;;;;;;71.10;27.00;;;;;;;6.03;100.00;100235.84;5028805;28;20047;-79
2021/11/04 02:36:10;;;;;;;66.18;28.08;;;;;;;6.04;100.00;100235.69;5042352;28;20036;-81
2021/11/04 02:38:36;;;;;;;61.10;27.38;;;;;;;6.03;100.00;100228.84;5006725;28;20025;-82
2021/11/04 02:41:03;;;;;;;57.45;27.48;;;;;;;6.06;100.00;100225.16;5022800;28;20029;-81
2021/11/04 02:43:31;;;;;;;62.05;28.45;;;;;;;6.10;100.00;100233.53;5028048;28;20037;-80
2021/11/04 02:45:58;;;;;;;70.35;29.67;;;;;;;6.01;100.00;100219.53;5019692;28;20038;-81
2021/11/04 02:48:24;;;;;;;62.67;29.92;;;;;;;6.03;100.00;100215.81;5034707;28;20407;-79
2021/11/04 02:50:52;;;;;;;70.72;30.90;;;;;;;5.99;100.00;100211.84;5000545;28;20034;-79
2021/11/04 02:53:19;;;;;;;66.57;31.30;;;;;;;6.07;100.00;100218.19;5033991;28;20034;-80
2021/11/04 02:55:45;;;;;;;76.70;31.27;;;;;;;5.99;100.00;100204.03;5019445;28;20032;-80
2021/11/04 02:58:12;;;;;;;69.65;30.83;;;;;;;6.04;100.00;100214.03;5004346;28;20048;-80
2021/11/04 03:00:42;;;;;;;65.95;29.08;;;;;;;6.03;100.00;100213.22;5048167;28;20457;-79
2021/11/04 03:03:07;;;;;;;66.43;30.33;;;;;;;6.08;100.00;100218.03;5021330;28;20064;-79
2021/11/04 03:05:33;;;;;;;67.97;29.88;;;;;;;6.06;100.00;100212.13;5054676;28;20061;-79
2021/11/04 03:07:59;;;;;;;64.28;28.83;;;;;;;6.01;100.00;100215.13;5044350;28;20064;-79
2021/11/04 03:10:25;;;;;;;61.53;29.45;;;;;;;6.03;100.00;100218.44;5021554;28;20037;-80
2021/11/04 03:12:52;;;;;;;76.25;30.83;;;;;;;6.01;100.00;100227.34;5030389;28;20046;-79
2021/11/04 03:15:20;;;;;;;72.75;32.00;;;;;;;6.09;100.00;100222.28;5046400;28;20040;-79
2021/11/04 03:17:48;;;;;;;69.18;31.67;;;;;;;6.06;100.00;100227.75;5036704;28;20094;-81
2021/11/04 03:20:17;;;;;;;69.68;30.65;;;;;;;6.08;100.00;100222.41;5036596;28;20036;-80
2021/11/04 03:22:45;;;;;;;65.45;30.60;;;;;;;6.09;100.00;100229.28;5035623;28;20048;-80
2021/11/04 03:25:14;;;;;;;57.60;29.48;;;;;;;6.09;100.00;100227.50;5041486;28;20094;-80
2021/11/04 03:27:42;;;;;;;63.10;30.13;;;;;;;6.10;100.00;100231.75;5004968;28;20083;-81
2021/11/04 03:30:10;;;;;;;58.10;29.35;;;;;;;6.08;100.00;100232.84;5013637;28;20448;-80
2021/11/04 03:32:37;;;;;;;68.88;28.95;;;;;;;6.08;100.00;100233.66;5041211;28;20068;-80
2021/11/04 03:35:03;;;;;;;56.25;29.00;;;;;;;6.03;100.00;100221.03;5025616;28;20052;-79
2021/11/04 03:37:31;;;;;;;62.03;29.60;;;;;;;6.07;100.00;100220.78;5016193;28;20037;-80
2021/11/04 03:39:58;;;;;;;61.50;29.10;;;;;;;6.07;100.00;100221.59;5054089;28;20037;-79
2021/11/04 03:42:25;;;;;;;59.80;28.08;;;;;;;6.11;100.00;100232.59;5036882;28;20037;-80
2021/11/04 03:44:51;;;;;;;67.78;28.45;;;;;;;6.01;100.00;100228.16;5028649;28;20013;-82
2021/11/04 03:47:17;;;;;;;48.33;25.30;;;;;;;6.06;100.00;100245.16;5059838;28;20024;-84
2021/11/04 03:49:47;;;;;;;60.13;25.52;;;;;;;6.03;100.00;100241.03;5076607;28;20021;-85
2021/11/04 03:52:13;;;;;;;53.03;25.70;;;;;;;6.08;100.00;100248.47;5069872;28;20423;-83
2021/11/04 03:54:39;;;;;;;50.50;25.52;;;;;;;6.07;100.00;100244.22;5066316;28;20025;-82
2021/11/04 03:57:05;;;;;;;47.35;24.40;;;;;;;6.09;100.00;100227.50;5017123;28;20033;-78
2021/11/04 03:59:30;;;;;;;46.65;23.65;;;;;;;6.11;100.00;100228.19;5000625;28;20037;-79
2021/11/04 04:01:57;;;;;;;46.38;23.10;;;;;;;6.06;100.00;100227.75;5036687;28;20049;-78
2021/11/04 04:04:23;;;;;;;48.65;22.83;;;;;;;6.02;100.00;100232.38;5034995;28;20599;-79
2021/11/04 04:06:51;;;;;;;52.38;23.05;;;;;;;6.02;100.00;100235.00;5026818;28;20136;-79
2021/11/04 04:09:17;;;;;;;42.88;22.27;;;;;;;6.01;100.00;100240.34;5024192;28;20517;-79
2021/11/04 04:11:42;;;;;;;48.72;23.05;;;;;;;5.98;100.00;100228.41;5052781;28;20036;-79
2021/11/04 04:14:08;;;;;;;49.42;22.33;;;;;;;6.03;100.00;100228.84;5023871;28;20063;-79
2021/11/04 04:16:33;;;;;;;47.97;22.30;;;;;;;6.03;100.00;100225.41;5016251;28;20499;-78
2021/11/04 04:18:59;;;;;;;50.20;22.13;;;;;;;5.98;100.00;100212.78;5040834;28;20056;-79
2021/11/04 04:21:24;;;;;;;42.88;22.55;;;;;;;5.98;100.00;100217.97;5016674;28;20065;-78
2021/11/04 04:23:50;;;;;;;45.78;22.80;;;;;;;5.99;100.00;100217.03;5039553;28;20036;-80
2021/11/04 04:26:15;;;;;;;49.42;23.05;;;;;;;5.96;100.00;100216.47;5012325;28;20068;-79
2021/11/04 04:28:41;;;;;;;44.72;22.42;;;;;;;5.92;100.00;100222.88;5042339;28;20052;-78
2021/11/04 04:31:07;;;;;;;47.13;22.67;;;;;;;6.00;100.00;100226.50;5035819;28;20399;-79
2021/11/04 04:33:32;;;;;;;46.70;24.17;;;;;;;5.94;100.00;100219.16;5023106;28;20037;-79
2021/11/04 04:35:58;;;;;;;54.13;24.35;;;;;;;5.97;100.00;100221.56;5023656;28;20517;-79
2021/11/04 04:38:24;;;;;;;47.67;24.27;;;;;;;5.99;100.00;100221.41;5047755;28;20040;-78
2021/11/04 04:40:51;;;;;;;49.25;24.27;;;;;;;5.99;100.00;100219.66;5019473;28;20032;-79
2021/11/04 04:43:17;;;;;;;46.75;23.33;;;;;;;5.96;100.00;100217.28;5033475;28;20407;-79
2021/11/04 04:45:43;;;;;;;49.70;24.10;;;;;;;6.00;100.00;100215.25;5010556;28;20399;-78
2021/11/04 04:48:10;;;;;;;48.88;25.10;;;;;;;5.95;100.00;100213.06;5035710;28;20047;-80
2021/11/04 04:50:38;;;;;;;46.75;23.63;;;;;;;5.96;100.00;100213.88;5032069;28;20063;-81
2021/11/04 04:53:04;;;;;;;44.35;22.20;;;;;;;5.91;100.00;100206.41;5053258;28;20494;-79
2021/11/04 04:55:29;;;;;;;40.30;21.30;;;;;;;5.98;100.00;100211.97;5041919;28;20029;-82
2021/11/04 04:57:55;;;;;;;48.45;22.77;;;;;;;5.93;100.00;100219.28;5035125;28;20033;-80
2021/11/04 05:00:21;;;;;;;41.45;21.77;;;;;;;5.96;100.00;100213.88;5035996;28;20410;-79
2021/11/04 05:02:47;;;;;;;49.55;23.42;;;;;;;5.93;100.00;100214.91;5034778;28;20459;-80
2021/11/04 05:05:13;;;;;;;45.22;22.50;;;;;;;5.95;100.00;100225.19;5033164;28;20061;-80
2021/11/04 05:07:39;;;;;;;44.88;23.05;;;;;;;5.97;100.00;100220.72;5032193;28;20037;-81
2021/11/04 05:10:06;;;;;;;51.35;23.65;;;;;;;5.98;100.00;100217.97;5048620;28;20060;-80
2021/11/04 05:12:32;;;;;;;48.35;24.50;;;;;;;5.93;100.00;100227.91;5033651;28;20431;-82
2021/11/04 05:14:58;;;;;;;43.53;23.52;;;;;;;5.93;100.00;100235.72;5048567;28;20041;-80
2021/11/04 05:17:24;;;;;;;46.75;22.88;;;;;;;5.92;100.00;100233.28;5036018;28;20037;-80
2021/11/04 05:19:49;;;;;;;53.75;22.98;;;;;;;5.84;100.00;100236.53;5046759;28;20029;-81
2021/11/04 05:22:15;;;;;;;47.78;23.90;;;;;;;5.87;100.00;100238.03;5051637;28;20037;-80
2021/11/04 05:24:40;;;;;;;53.00;25.20;;;;;;;5.85;100.00;100218.16;5049386;28;20112;-80
2021/11/04 05:27:06;;;;;;;49.15;23.75;;;;;;;5.89;100.00;100233.53;5035200;28;20112;-81
2021/11/04 05:29:32;;;;;;;51.88;23.90;;;;;;;5.93;100.00;100242.72;5031105;28;20034;-80
2021/11/04 05:31:59;;;;;;;40.67;22.48;;;;;;;5.97;100.00;100245.00;5038270;28;20560;-80
2021/11/04 05:34:26;;;;;;;45.25;23.75;;;;;;;5.92;100.00;100238.50;5022503;28;20036;-80
2021/11/04 05:36:51;;;;;;;55.53;22.98;;;;;;;5.93;100.00;100240.13;5005195;28;20120;-81
2021/11/04 05:39:17;;;;;;;45.50;23.80;;;;;;;5.86;100.00;100234.63;5023284;28;20048;-80
2021/11/04 05:41:42;;;;;;;43.25;22.42;;;;;;;5.88;100.00;100244.88;5035688;28;20470;-82
2021/11/04 05:44:08;;;;;;;40.30;21.88;;;;;;;5.89;100.00;100249.97;5032202;28;20048;-81
2021/11/04 05:46:34;;;;;;;47.08;21.92;;;;;;;5.84;100.00;100250.34;5039941;28;20039;-80
2021/11/04 05:48:59;;;;;;;39.55;20.65;;;;;;;5.89;100.00;100247.34;5039180;28;20059;-83
2021/11/04 05:51:24;;;;;;;46.65;20.50;;;;;;;5.93;100.00;100250.53;5022958;28;20060;-81
2021/11/04 05:53:50;;;;;;;39.42;20.83;;;;;;;5.76;100.00;100241.53;5052159;28;20415;-81
2021/11/04 05:56:16;;;;;;;37.65;19.75;;;;;;;5.83;100.00;100260.91;5006733;28;20029;-81
2021/11/04 05:58:41;;;;;;;36.85;17.13;;;;;;;5.84;100.00;100263.38;5023345;28;20443;-82
2021/11/04 06:01:07;;;;;;;37.78;18.17;;;;;;;5.85;100.00;100266.78;5023591;28;20028;-81
2021/11/04 06:03:32;;;;;;;32.72;16.67;;;;;;;5.77;100.00;100254.41;5019267;28;20033;-81
2021/11/04 06:05:58;;;;;;;28.27;14.90;;;;;;;5.78;100.00;100263.88;5020254;28;20049;-81
2021/11/04 06:08:23;;;;;;;29.27;16.40;;;;;;;5.80;100.00;100266.34;5038218;28;20036;-81
2021/11/04 06:10:49;;;;;;;29.17;15.82;;;;;;;5.76;100.00;100270.97;5044598;28;20033;-82
2021/11/04 06:13:14;;;;;;;33.60;15.77;;;;;;;5.79;100.00;100265.53;5035472;28;20061;-82
2021/11/04 06:15:40;;;;;;;28.08;14.95;;;;;;;5.64;100.00;100245.97;5023444;28;20040;-81
2021/11/04 06:18:05;;;;;;;27.23;15.27;;;;;;;5.62;100.00;100259.09;5055962;28;20025;-81
2021/11/04 06:20:31;;;;;;;30.92;16.52;;;;;;;5.69;100.00;100269.00;5040146;28;20052;-81
2021/11/04 06:22:57;;;;;;;31.08;16.60;;;;;;;5.66;100.00;100260.50;5038203;28;20066;-80
2021/11/04 06:25:22;;;;;;;27.13;15.40;;;;;;;5.77;100.00;100277.03;5006366;28;20113;-81
2021/11/04 06:27:48;;;;;;;27.95;15.48;;;;;;;5.83;100.00;100281.72;5042160;28;20033;-81
2021/11/04 06:30:13;;;;;;;27.50;15.70;;;;;;;5.83;100.00;100284.31;5033703;28;20051;-81
2021/11/04 06:32:39;;;;;;;32.28;16.88;;;;;;;5.79;100.00;100283.75;5021281;28;20037;-81
2021/11/04 06:35:08;;;;;;;32.47;16.17;;;;;;;5.80;100.00;100276.75;5028294;28;20037;-83
2021/11/04 06:37:34;;;;;;;28.08;15.68;;;;;;;5.80;100.00;100284.56;5052669;28;20502;-80
2021/11/04 06:40:01;;;;;;;35.30;17.08;;;;;;;5.81;100.00;100281.03;5023156;28;20037;-81
2021/11/04 06:42:26;;;;;;;37.65;17.20;;;;;;;5.79;100.00;100285.53;5026142;28;20068;-81
2021/11/04 06:44:52;;;;;;;32.65;17.08;;;;;;;5.79;100.00;100282.94;5037523;28;20067;-81
2021/11/04 06:47:44;;;;;;;32.03;17.88;;;;;;;5.79;100.00;100275.94;5037548;28;20483;-81
2021/11/04 06:50:11;;;;;;;40.47;18.52;;;;;;;5.88;100.00;100283.91;5019197;28;20148;-81
2021/11/04 06:52:49;;;;;;;35.60;19.45;;;;;;;5.90;100.00;100282.88;5037281;28;20049;-82
2021/11/04 06:55:15;;;;;;;37.88;18.67;;;;;;;5.86;100.00;100286.69;5036615;28;20487;-81
2021/11/04 06:57:42;;;;;;;40.00;18.10;;;;;;;5.88;100.00;100284.78;5026788;28;20036;-79
2021/11/04 07:00:10;;;;;;;34.10;18.48;;;;;;;5.86;100.00;100281.47;5019725;28;20033;-80
2021/11/04 07:02:38;;;;;;;39.60;19.80;;;;;;;5.91;100.00;100278.47;5033650;28;20029;-80
2021/11/04 07:05:07;;;;;;;44.80;19.70;;;;;;;5.98;100.00;100280.47;5000866;28;20120;-81
2021/11/04 07:07:43;;;;;;;40.40;18.55;;;;;;;5.98;100.00;100271.84;5005173;28;20034;-80
2021/11/04 07:10:11;;;;;;;36.90;19.27;;;;;;;5.98;100.00;100270.06;5025721;28;20532;-81
2021/11/04 07:12:41;;;;;;;39.45;19.38;;;;;;;6.00;100.00;100273.34;5037912;28;20029;-80
2021/11/04 07:15:07;;;;;;;43.92;19.90;;;;;;;6.03;100.00;100278.31;5004962;28;20039;-79
2021/11/04 07:17:35;;;;;;;39.75;19.73;;;;;;;6.01;100.00;100277.63;5016779;28;20029;-80
2021/11/04 07:20:01;;;;;;;34.40;18.65;;;;;;;6.00;100.00;100285.56;5019467;28;20037;-80
2021/11/04 07:22:48;;;;;;;38.00;18.17;;;;;;;6.03;100.00;100278.31;5024237;28;20174;-79
2021/11/04 07:25:15;;;;;;;40.83;17.75;;;;;;;6.06;100.00;100284.22;5035434;28;20188;-80
2021/11/04 07:27:44;;;;;;;33.13;17.65;;;;;;;6.11;100.00;100285.47;5034993;28;20072;-79
2021/11/04 07:30:14;;;;;;;36.58;18.17;;;;;;;6.06;100.00;100282.44;5018715;28;20570;-79
2021/11/04 07:32:46;;;;;;;36.30;18.25;;;;;;;6.07;100.00;100272.84;5009336;28;20040;-82
2021/11/04 07:35:15;;;;;;;34.15;17.15;;;;;;;6.04;100.00;100264.31;5030169;28;20114;-80
2021/11/04 07:37:42;;;;;;;33.22;17.45;;;;;;;6.02;100.00;100266.22;5041977;28;20036;-80
2021/11/04 07:40:08;;;;;;;36.08;17.60;;;;;;;6.10;100.00;100264.78;5045341;28;20064;-79
2021/11/04 07:42:36;;;;;;;39.35;18.85;;;;;;;6.08;100.00;100258.88;5018920;28;20040;-80
2021/11/04 07:45:02;;;;;;;32.85;16.65;;;;;;;6.12;100.00;100257.66;5018515;28;20392;-79
2021/11/04 07:47:28;;;;;;;39.65;18.27;;;;;;;6.15;100.00;100257.41;5023943;28;20087;-79
2021/11/04 07:49:53;;;;;;;34.25;16.02;;;;;;;6.16;100.00;100251.22;5030066;28;20032;-80
2021/11/04 07:52:19;;;;;;;31.23;16.60;;;;;;;6.19;100.00;100250.97;5039867;28;20082;-79
2021/11/04 07:54:45;;;;;;;28.27;15.77;;;;;;;6.21;100.00;100251.66;5034563;28;20389;-79
2021/11/04 07:57:10;;;;;;;37.42;16.80;;;;;;;6.26;100.00;100243.47;5034725;28;20029;-79
2021/11/04 07:59:36;;;;;;;33.63;16.52;;;;;;;6.27;100.00;100235.50;5030200;28;20029;-79
2021/11/04 08:02:03;;;;;;;35.08;16.52;;;;;;;6.32;100.00;100248.97;5050770;28;20036;-80
2021/11/04 08:04:28;;;;;;;32.03;17.15;;;;;;;6.38;100.00;100252.84;5025577;28;20036;-80
2021/11/04 08:06:54;;;;;;;36.08;16.35;;;;;;;6.38;100.00;100250.22;5022273;28;20025;-79
2021/11/04 08:09:20;;;;;;;36.05;16.48;;;;;;;6.38;100.00;100245.03;5015158;28;20562;-79
2021/11/04 08:11:46;;;;;;;35.90;17.67;;;;;;;6.38;100.00;100245.03;5002091;28;20783;-79
2021/11/04 08:14:11;;;;;;;33.38;17.10;;;;;;;6.47;100.00;100254.66;5036162;28;20029;-79
2021/11/04 08:16:37;;;;;;;35.70;17.30;;;;;;;6.57;100.00;100260.75;5018048;28;20029;-79
2021/11/04 08:19:02;;;;;;;36.17;18.13;;;;;;;6.56;100.00;100258.25;5050973;28;20035;-79
2021/11/04 08:21:28;;;;;;;38.75;19.27;;;;;;;6.55;100.00;100256.59;5017874;28;20052;-79
2021/11/04 08:23:53;;;;;;;36.92;19.27;;;;;;;6.54;100.00;100255.78;5041620;28;20505;-80
2021/11/04 08:26:19;;;;;;;46.15;20.40;;;;;;;6.57;100.00;100262.50;5020383;28;20032;-79
2021/11/04 08:28:44;;;;;;;49.88;22.73;;;;;;;6.60;100.00;100255.25;5041286;28;20385;-79
2021/11/04 08:31:10;;;;;;;39.83;20.83;;;;;;;6.62;100.00;100258.53;5032059;28;20098;-79
2021/11/04 08:33:36;;;;;;;45.05;21.75;;;;;;;6.66;100.00;100250.47;5030850;28;20132;-81
2021/11/04 08:36:01;;;;;;;40.53;20.05;;;;;;;6.68;100.00;100251.97;5036568;28;20071;-80
2021/11/04 08:38:27;;;;;;;36.70;19.90;;;;;;;6.66;100.00;100248.69;5012482;28;20491;-79
2021/11/04 08:40:52;;;;;;;40.60;21.13;;;;;;;6.71;100.00;100254.31;5049954;28;20024;-79
2021/11/04 08:43:18;;;;;;;42.60;19.30;;;;;;;6.77;100.00;100247.75;5031309;28;20046;-78
2021/11/04 08:45:43;;;;;;;48.97;21.80;;;;;;;6.76;100.00;100249.53;5049974;28;20032;-80
2021/11/04 08:48:11;;;;;;;36.70;19.77;;;;;;;6.84;100.00;100246.25;5034161;28;20487;-79
2021/11/04 08:50:36;;;;;;;38.55;19.63;;;;;;;6.80;100.00;100250.91;5026788;28;20028;-79
2021/11/04 08:53:02;;;;;;;37.85;19.63;;;;;;;6.77;100.00;100256.38;5014772;28;20029;-80
2021/11/04 08:55:27;;;;;;;37.75;18.85;;;;;;;6.87;100.00;100252.97;5045882;28;20024;-79
2021/11/04 08:57:54;;;;;;;38.58;19.27;;;;;;;6.86;100.00;100248.75;5039491;28;20124;-80
2021/11/04 09:00:20;;;;;;;39.00;19.50;;;;;;;6.85;100.00;100254.91;5037335;28;20491;-79
2021/11/04 09:02:47;;;;;;;37.08;19.42;;;;;;;6.87;100.00;100245.16;5021292;28;20037;-79
2021/11/04 09:05:12;;;;;;;35.90;18.23;;;;;;;6.91;100.00;100247.38;5050904;28;20041;-79
2021/11/04 09:07:40;;;;;;;34.20;18.50;;;;;;;6.90;100.00;100250.13;5036541;28;20035;-79
2021/11/04 09:10:09;;;;;;;42.88;18.33;;;;;;;6.92;100.00;100245.59;5034875;28;20677;-79
2021/11/04 09:12:38;;;;;;;40.05;17.88;;;;;;;7.02;100.00;100251.63;5047899;28;20060;-79
2021/11/04 09:15:05;;;;;;;29.58;15.65;;;;;;;7.02;100.00;100241.19;5037768;28;20044;-79
2021/11/04 09:17:31;;;;;;;26.85;15.32;;;;;;;6.99;100.00;100244.09;5021353;28;20025;-81
2021/11/04 09:19:58;;;;;;;24.90;14.60;;;;;;;6.93;100.00;100237.63;5017701;28;20045;-81
2021/11/04 09:22:23;;;;;;;26.95;14.85;;;;;;;6.93;100.00;100248.06;5025328;28;20025;-79
2021/11/04 09:24:49;;;;;;;27.25;15.18;;;;;;;6.95;100.00;100234.88;5020376;28;20068;-79
2021/11/04 09:27:15;;;;;;;28.35;14.77;;;;;;;6.99;100.00;100238.88;5055272;28;20094;-79
2021/11/04 09:29:41;;;;;;;33.25;14.77;;;;;;;6.95;100.00;100240.94;5038122;28;20052;-79
2021/11/04 09:32:10;;;;;;;26.20;13.95;;;;;;;7.00;100.00;100236.09;5021615;28;20572;-80
2021/11/04 09:34:37;;;;;;;29.52;15.20;;;;;;;6.97;100.00;100232.97;5035809;28;20577;-79
2021/11/04 09:37:06;;;;;;;32.33;15.63;;;;;;;7.00;100.00;100230.06;5022719;28;20033;-79
2021/11/04 09:39:33;;;;;;;30.77;15.70;;;;;;;7.02;100.00;100228.97;5028158;28;20055;-80
2021/11/04 09:41:59;;;;;;;28.88;14.98;;;;;;;7.04;100.00;100220.19;5037631;28;20478;-79
2021/11/04 09:44:25;;;;;;;27.80;15.35;;;;;;;7.05;100.00;100224.47;5026071;28;20057;-80
2021/11/04 09:46:50;;;;;;;27.95;14.52;;;;;;;7.04;100.00;100230.63;5036694;28;20025;-80
2021/11/04 09:49:16;;;;;;;28.20;14.25;;;;;;;7.10;100.00;100217.88;5021171;28;20120;-79
2021/11/04 09:51:42;;;;;;;32.53;15.70;;;;;;;7.09;100.00;100215.41;5019380;28;20034;-81
2021/11/04 09:54:08;;;;;;;29.17;15.73;;;;;;;7.02;100.00;100221.16;5017864;28;20040;-80
2021/11/04 09:56:35;;;;;;;27.52;14.90;;;;;;;7.05;100.00;100224.47;5028849;28;20043;-78
2021/11/04 09:59:01;;;;;;;34.22;15.93;;;;;;;7.11;100.00;100226.53;5038802;28;20379;-78
2021/11/04 10:01:29;;;;;;;29.30;15.52;;;;;;;7.13;100.00;100225.41;5032425;28;20491;-79
2021/11/04 10:03:57;;;;;;;26.52;15.50;;;;;;;7.12;100.00;100225.56;5029099;28;20036;-79
2021/11/04 10:06:27;;;;;;;24.52;14.68;;;;;;;7.14;100.00;100221.88;5032474;28;20043;-79
2021/11/04 10:08:57;;;;;;;27.75;14.77;;;;;;;7.17;100.00;100226.78;5029255;28;20025;-80
2021/11/04 10:11:35;;;;;;;26.70;14.25;;;;;;;7.13;100.00;100220.19;5037245;28;20033;-79
2021/11/04 10:14:03;;;;;;;24.80;14.52;;;;;;;7.11;100.00;100222.13;5037407;28;20043;-80
2021/11/04 10:16:32;;;;;;;27.40;14.20;;;;;;;7.13;100.00;100214.97;5022859;28;20037;-79
2021/11/04 10:19:02;;;;;;;27.73;14.73;;;;;;;7.13;100.00;100214.16;5037154;28;20368;-79
2021/11/04 10:21:29;;;;;;;26.95;14.20;;;;;;;7.20;100.00;100210.88;5021854;28;20537;-79
2021/11/04 10:23:54;;;;;;;25.77;14.20;;;;;;;7.22;100.00;100210.75;5033829;28;20132;-79
2021/11/04 10:26:24;;;;;;;28.70;14.15;;;;;;;7.31;100.00;100214.28;5018609;28;20586;-80
2021/11/04 10:29:07;;;;;;;25.45;14.63;;;;;;;7.20;100.00;100213.47;5019375;28;20045;-79
2021/11/04 10:31:43;;;;;;;28.48;14.23;;;;;;;7.25;100.00;100214.84;5046673;28;20037;-78
2021/11/04 10:34:30;;;;;;;29.23;14.48;;;;;;;7.27;100.00;100216.38;5010490;28;20095;-78
2021/11/04 10:37:08;;;;;;;30.27;15.88;;;;;;;7.30;100.00;100213.47;5054267;28;20033;-79
2021/11/04 10:39:40;;;;;;;28.02;15.50;;;;;;;7.37;100.00;100211.97;5041155;28;20116;-79
2021/11/04 10:42:06;;;;;;;30.20;16.10;;;;;;;7.35;100.00;100219.09;5046807;28;20053;-79
2021/11/04 10:44:32;;;;;;;32.67;16.23;;;;;;;7.29;100.00;100217.06;5053020;28;20029;-79
2021/11/04 10:46:58;;;;;;;30.23;16.98;;;;;;;7.30;100.00;100221.31;5052676;28;20518;-79
2021/11/04 10:49:40;;;;;;;34.47;17.67;;;;;;;7.27;100.00;100221.59;5031298;28;20610;-79
2021/11/04 10:52:08;;;;;;;29.65;17.05;;;;;;;7.28;100.00;100220.63;5025235;28;20116;-78
2021/11/04 10:54:54;;;;;;;33.50;17.42;;;;;;;7.30;100.00;100216.09;5036628;28;20029;-79
2021/11/04 10:57:39;;;;;;;32.35;17.65;;;;;;;7.37;100.00;100206.75;5003773;28;20044;-79
2021/11/04 11:00:19;;;;;;;32.25;18.25;;;;;;;7.42;100.00;100211.53;5017987;28;20032;-79
2021/11/04 11:03:14;;;;;;;35.83;18.35;;;;;;;7.41;100.00;100213.31;5037224;28;20040;-79
2021/11/04 11:05:42;;;;;;;35.97;18.13;;;;;;;7.41;100.00;100208.13;5025980;28;20044;-79
2021/11/04 11:08:13;;;;;;;40.50;18.88;;;;;;;7.46;100.00;100207.72;5046597;28;20517;-79
2021/11/04 11:10:39;;;;;;;33.70;18.15;;;;;;;7.42;100.00;100201.09;5030689;28;20407;-79